createdAt,value
2018-08-23T00:00:01.424Z,97.38
2018-08-23T00:01:10.349Z,97.38
2018-08-23T00:02:19.002Z,97.47
2018-08-23T00:03:27.664Z,97.24
2018-08-23T00:04:36.609Z,97.47
2018-08-23T00:05:45.260Z,97.47
2018-08-23T00:06:53.907Z,98.24
2018-08-23T00:08:02.569Z,98.19
2018-08-23T00:09:11.736Z,97.91
2018-08-23T00:10:20.386Z,98.48
2018-08-23T00:11:29.830Z,98.39
2018-08-23T00:12:38.483Z,97.71
2018-08-23T00:13:47.181Z,98.48
2018-08-23T00:14:55.781Z,97.91
2018-08-23T00:16:04.693Z,98.19
2018-08-23T00:17:13.347Z,98.48
2018-08-23T00:18:21.993Z,98.58
2018-08-23T00:19:30.643Z,98.39
2018-08-23T00:20:39.286Z,98.39
2018-08-23T00:21:48.194Z,98.39
2018-08-23T00:22:56.848Z,98.29
2018-08-23T00:24:05.497Z,98.58
2018-08-23T00:25:14.146Z,98.39
2018-08-23T00:26:22.789Z,98.58
2018-08-23T00:27:31.442Z,98.77
2018-08-23T00:28:40.090Z,98.96
2018-08-23T00:29:49.012Z,98.86
2018-08-23T00:30:57.925Z,99.15
2018-08-23T00:32:06.579Z,98.96
2018-08-23T00:33:15.485Z,99.15
2018-08-23T00:34:24.135Z,98.96
2018-08-23T00:35:32.780Z,99.06
2018-08-23T00:36:41.427Z,98.58
2018-08-23T00:37:50.080Z,98.58
2018-08-23T00:38:58.728Z,98.77
2018-08-23T00:40:07.394Z,99.15
2018-08-23T00:41:16.037Z,99.15
2018-08-23T00:42:24.684Z,99.06
2018-08-23T00:43:33.332Z,99.68
2018-08-23T00:44:41.986Z,99.25
2018-08-23T00:45:50.627Z,99.49
2018-08-23T00:46:59.285Z,99.83
2018-08-23T00:48:08.194Z,99.58
2018-08-23T00:49:17.115Z,99.2
2018-08-23T00:50:25.759Z,99.25
2018-08-23T00:51:34.674Z,99.63
2018-08-23T00:52:43.322Z,99.25
2018-08-23T00:53:51.978Z,99.83
2018-08-23T00:55:00.624Z,99.87
2018-08-23T00:56:09.270Z,99.97
2018-08-23T00:57:17.914Z,99.3
2018-08-23T00:58:26.565Z,99.4
2018-08-23T00:59:35.476Z,99.49
2018-08-23T01:00:44.128Z,99.49
2018-08-23T01:01:52.770Z,99.68
2018-08-23T01:03:01.413Z,99.2
2018-08-23T01:04:10.061Z,99.78
2018-08-23T01:05:18.712Z,99.4
2018-08-23T01:06:27.618Z,99.78
2018-08-23T01:07:36.276Z,99.58
2018-08-23T01:08:45.173Z,99.58
2018-08-23T01:09:54.089Z,99.78
2018-08-23T01:11:02.733Z,99.68
2018-08-23T01:12:11.389Z,99.87
2018-08-23T01:13:20.040Z,99.3
2018-08-23T01:14:28.683Z,99.99
2018-08-23T01:15:37.329Z,99.99
2018-08-23T01:16:45.975Z,99.58
2018-08-23T01:17:54.909Z,99.99
2018-08-23T01:19:03.555Z,99.99
2018-08-23T01:20:12.203Z,99.99
2018-08-23T01:21:20.842Z,99.92
2018-08-23T01:22:29.766Z,99.99
2018-08-23T01:23:38.410Z,99.99
2018-08-23T01:24:47.062Z,99.99
2018-08-23T01:25:55.971Z,99.99
2018-08-23T01:27:04.625Z,99.99
2018-08-23T01:28:13.268Z,99.99
2018-08-23T01:29:21.919Z,99.73
2018-08-23T01:30:30.558Z,99.99
2018-08-23T01:31:39.207Z,99.99
2018-08-23T01:32:47.863Z,99.99
2018-08-23T01:33:56.784Z,99.99
2018-08-23T01:35:05.433Z,99.99
2018-08-23T01:36:14.334Z,99.99
2018-08-23T01:37:22.985Z,99.99
2018-08-23T01:38:31.631Z,99.99
2018-08-23T01:39:40.286Z,99.99
2018-08-23T01:40:49.185Z,99.99
2018-08-23T01:41:57.838Z,99.99
2018-08-23T01:43:06.770Z,99.99
2018-08-23T01:44:15.429Z,99.99
2018-08-23T01:45:24.064Z,99.99
2018-08-23T01:46:32.714Z,99.99
2018-08-23T01:47:41.359Z,99.99
2018-08-23T01:48:50.016Z,99.99
2018-08-23T01:49:58.661Z,99.99
2018-08-23T01:51:07.304Z,99.99
2018-08-23T01:52:15.949Z,99.99
2018-08-23T01:53:24.592Z,99.99
2018-08-23T01:54:33.248Z,99.99
2018-08-23T01:55:41.897Z,99.99
2018-08-23T01:56:50.553Z,99.99
2018-08-23T01:57:59.190Z,99.99
2018-08-23T01:59:08.118Z,99.99
2018-08-23T02:00:16.760Z,99.99
2018-08-23T02:01:25.417Z,99.99
2018-08-23T02:02:34.057Z,99.99
2018-08-23T02:03:42.976Z,99.99
2018-08-23T02:04:51.620Z,99.99
2018-08-23T02:06:00.271Z,99.99
2018-08-23T02:07:08.912Z,99.99
2018-08-23T02:08:17.560Z,99.99
2018-08-23T02:09:26.209Z,99.99
2018-08-23T02:10:34.857Z,99.99
2018-08-23T02:11:43.505Z,99.99
2018-08-23T02:12:52.412Z,99.99
2018-08-23T02:14:01.324Z,99.99
2018-08-23T02:15:09.972Z,99.99
2018-08-23T02:16:18.632Z,99.99
2018-08-23T02:17:27.548Z,99.99
2018-08-23T02:18:36.202Z,99.99
2018-08-23T02:19:44.855Z,99.99
2018-08-23T02:20:54.037Z,99.99
2018-08-23T02:22:02.681Z,99.99
2018-08-23T02:23:11.330Z,99.99
2018-08-23T02:24:19.976Z,99.99
2018-08-23T02:25:28.629Z,99.99
2018-08-23T02:26:37.275Z,99.99
2018-08-23T02:27:45.923Z,99.99
2018-08-23T02:28:54.571Z,99.99
2018-08-23T02:30:03.482Z,99.99
2018-08-23T02:31:12.135Z,99.99
2018-08-23T02:32:21.045Z,99.99
2018-08-23T02:33:29.691Z,99.99
2018-08-23T02:34:38.334Z,99.99
2018-08-23T02:35:46.988Z,99.99
2018-08-23T02:36:55.635Z,99.99
2018-08-23T02:38:04.371Z,99.99
2018-08-23T02:39:13.288Z,99.99
2018-08-23T02:40:21.943Z,99.99
2018-08-23T02:41:30.588Z,99.99
2018-08-23T02:42:39.239Z,99.99
2018-08-23T02:43:47.874Z,99.99
2018-08-23T02:44:56.525Z,99.99
2018-08-23T02:46:05.170Z,99.99
2018-08-23T02:47:13.824Z,99.99
2018-08-23T02:48:23.005Z,99.99
2018-08-23T02:49:31.648Z,99.99
2018-08-23T02:50:40.294Z,99.99
2018-08-23T02:51:49.753Z,99.99
2018-08-23T02:52:58.403Z,99.99
2018-08-23T02:54:07.051Z,99.99
2018-08-23T02:55:15.698Z,99.99
2018-08-23T02:56:24.354Z,99.99
2018-08-23T02:57:33.009Z,99.99
2018-08-23T02:58:41.651Z,99.99
2018-08-23T02:59:50.304Z,99.99
2018-08-23T03:00:58.948Z,99.99
2018-08-23T03:02:07.598Z,99.99
2018-08-23T03:03:16.252Z,99.99
2018-08-23T03:04:24.909Z,99.99
2018-08-23T03:05:33.559Z,99.99
2018-08-23T03:06:42.216Z,99.99
2018-08-23T03:07:50.862Z,99.99
2018-08-23T03:08:59.510Z,99.99
2018-08-23T03:10:08.471Z,99.99
2018-08-23T03:11:17.125Z,99.99
2018-08-23T03:12:25.768Z,99.99
2018-08-23T03:13:34.413Z,99.99
2018-08-23T03:14:43.062Z,99.99
2018-08-23T03:15:52.505Z,99.99
2018-08-23T03:17:01.407Z,99.99
2018-08-23T03:18:10.060Z,99.99
2018-08-23T03:19:18.707Z,99.99
2018-08-23T03:20:27.358Z,99.99
2018-08-23T03:21:36.002Z,99.99
2018-08-23T03:22:44.650Z,99.99
2018-08-23T03:23:53.292Z,99.99
2018-08-23T03:25:01.950Z,99.99
2018-08-23T03:26:10.606Z,99.99
2018-08-23T03:27:19.253Z,99.99
2018-08-23T03:28:28.165Z,99.99
2018-08-23T03:29:36.810Z,99.99
2018-08-23T03:30:45.466Z,99.99
2018-08-23T03:31:54.119Z,99.99
2018-08-23T03:33:03.295Z,99.99
2018-08-23T03:34:11.936Z,99.99
2018-08-23T03:35:20.585Z,99.99
2018-08-23T03:36:29.767Z,99.99
2018-08-23T03:37:38.436Z,99.99
2018-08-23T03:38:47.068Z,99.99
2018-08-23T03:39:55.715Z,99.99
2018-08-23T03:41:04.625Z,99.99
2018-08-23T03:42:13.278Z,99.99
2018-08-23T03:43:22.186Z,99.99
2018-08-23T03:44:30.829Z,99.99
2018-08-23T03:45:39.736Z,99.99
2018-08-23T03:46:48.382Z,99.99
2018-08-23T03:47:57.033Z,99.99
2018-08-23T03:49:06.204Z,99.99
2018-08-23T03:50:14.852Z,99.99
2018-08-23T03:51:23.769Z,99.99
2018-08-23T03:52:32.524Z,99.99
2018-08-23T03:53:41.468Z,99.99
2018-08-23T03:54:50.566Z,99.99
2018-08-23T03:55:59.232Z,99.99
2018-08-23T03:57:07.864Z,99.99
2018-08-23T03:58:16.516Z,99.99
2018-08-23T03:59:25.164Z,99.99
2018-08-23T04:00:33.816Z,99.99
2018-08-23T04:01:42.458Z,99.99
2018-08-23T04:02:51.117Z,99.99
2018-08-23T04:04:00.026Z,99.99
2018-08-23T04:05:08.676Z,99.99
2018-08-23T04:06:17.576Z,99.99
2018-08-23T04:07:26.506Z,99.99
2018-08-23T04:08:35.150Z,99.99
2018-08-23T04:09:43.801Z,99.99
2018-08-23T04:10:52.438Z,99.99
2018-08-23T04:12:01.092Z,99.99
2018-08-23T04:13:09.740Z,99.99
2018-08-23T04:14:18.646Z,99.99
2018-08-23T04:15:27.381Z,99.99
2018-08-23T04:16:35.937Z,99.99
2018-08-23T04:17:44.587Z,99.99
2018-08-23T04:18:53.236Z,99.99
2018-08-23T04:20:01.888Z,99.99
2018-08-23T04:21:10.524Z,99.99
2018-08-23T04:22:19.441Z,99.99
2018-08-23T04:23:28.085Z,99.99
2018-08-23T04:24:36.738Z,99.99
2018-08-23T04:25:45.378Z,99.99
2018-08-23T04:26:54.034Z,99.99
2018-08-23T04:28:02.676Z,99.99
2018-08-23T04:29:11.594Z,99.99
2018-08-23T04:30:20.231Z,99.99
2018-08-23T04:31:29.155Z,99.99
2018-08-23T04:32:37.799Z,99.99
2018-08-23T04:33:46.453Z,99.99
2018-08-23T04:34:55.375Z,99.99
2018-08-23T04:36:04.278Z,99.99
2018-08-23T04:37:12.929Z,99.99
2018-08-23T04:38:22.098Z,99.99
2018-08-23T04:39:31.283Z,99.99
2018-08-23T04:40:39.926Z,99.99
2018-08-23T04:41:48.579Z,99.99
2018-08-23T04:42:57.218Z,99.99
2018-08-23T04:44:05.877Z,99.99
2018-08-23T04:45:14.519Z,99.99
2018-08-23T04:46:23.436Z,99.99
2018-08-23T04:47:32.077Z,99.99
2018-08-23T04:48:40.728Z,99.99
2018-08-23T04:49:49.632Z,99.99
2018-08-23T04:50:58.290Z,99.99
2018-08-23T04:52:06.927Z,99.99
2018-08-23T04:53:15.575Z,99.99
2018-08-23T04:54:24.493Z,99.99
2018-08-23T04:55:33.143Z,99.99
2018-08-23T04:56:41.789Z,99.99
2018-08-23T04:57:50.425Z,99.99
2018-08-23T04:58:59.073Z,99.99
2018-08-23T05:00:07.721Z,99.99
2018-08-23T05:01:16.378Z,99.99
2018-08-23T05:02:25.022Z,99.99
2018-08-23T05:03:33.937Z,99.99
2018-08-23T05:04:42.844Z,99.99
2018-08-23T05:05:51.495Z,99.99
2018-08-23T05:07:00.396Z,99.99
2018-08-23T05:08:09.045Z,99.99
2018-08-23T05:09:17.691Z,99.99
2018-08-23T05:10:26.354Z,99.99
2018-08-23T05:11:34.998Z,99.99
2018-08-23T05:12:43.900Z,99.99
2018-08-23T05:13:52.601Z,99.99
2018-08-23T05:15:01.514Z,99.99
2018-08-23T05:16:10.165Z,99.99
2018-08-23T05:17:18.811Z,99.99
2018-08-23T05:18:27.725Z,99.99
2018-08-23T05:19:36.365Z,99.99
2018-08-23T05:20:45.016Z,99.99
2018-08-23T05:21:53.932Z,99.99
2018-08-23T05:23:02.628Z,99.99
2018-08-23T05:24:11.598Z,99.99
2018-08-23T05:25:20.248Z,99.99
2018-08-23T05:26:28.893Z,99.99
2018-08-23T05:27:37.550Z,99.99
2018-08-23T05:28:46.199Z,99.99
2018-08-23T05:29:54.868Z,99.99
2018-08-23T05:31:03.498Z,99.99
2018-08-23T05:32:12.150Z,99.99
2018-08-23T05:33:20.799Z,99.99
2018-08-23T05:34:29.446Z,99.99
2018-08-23T05:35:38.365Z,99.99
2018-08-23T05:36:47.015Z,99.99
2018-08-23T05:37:55.668Z,99.99
2018-08-23T05:39:04.319Z,99.99
2018-08-23T05:40:13.229Z,99.99
2018-08-23T05:41:21.875Z,99.99
2018-08-23T05:42:30.795Z,99.99
2018-08-23T05:43:39.435Z,99.99
2018-08-23T05:44:48.083Z,99.99
2018-08-23T05:45:56.726Z,99.99
2018-08-23T05:47:05.380Z,99.99
2018-08-23T05:48:14.023Z,99.99
2018-08-23T05:49:22.935Z,99.99
2018-08-23T05:50:31.584Z,99.99
2018-08-23T05:51:40.237Z,99.99
2018-08-23T05:52:49.147Z,99.99
2018-08-23T05:53:57.794Z,99.99
2018-08-23T05:55:06.445Z,99.99
2018-08-23T05:56:15.089Z,99.99
2018-08-23T05:57:23.750Z,99.99
2018-08-23T05:58:32.385Z,99.99
2018-08-23T05:59:41.036Z,99.99
2018-08-23T06:00:49.678Z,99.99
2018-08-23T06:01:58.596Z,99.99
2018-08-23T06:03:07.346Z,99.99
2018-08-23T06:04:15.995Z,99.99
2018-08-23T06:05:24.632Z,99.99
2018-08-23T06:06:33.286Z,99.99
2018-08-23T06:07:41.940Z,99.99
2018-08-23T06:08:51.111Z,99.99
2018-08-23T06:09:59.763Z,99.99
2018-08-23T06:11:08.397Z,99.99
2018-08-23T06:12:17.049Z,99.99
2018-08-23T06:13:25.692Z,99.99
2018-08-23T06:14:34.356Z,99.99
2018-08-23T06:15:42.991Z,99.99
2018-08-23T06:16:51.642Z,99.82
2018-08-23T06:18:00.290Z,99.97
2018-08-23T06:19:09.207Z,99.99
2018-08-23T06:20:17.849Z,99.99
2018-08-23T06:21:26.498Z,99.3
2018-08-23T06:22:35.145Z,99.4
2018-08-23T06:23:43.803Z,99.78
2018-08-23T06:24:52.450Z,99.49
2018-08-23T06:26:01.092Z,99.58
2018-08-23T06:27:09.738Z,99.3
2018-08-23T06:28:18.737Z,99.3
2018-08-23T06:29:27.662Z,99.4
2018-08-23T06:30:36.304Z,99.49
2018-08-23T06:31:44.965Z,98.91
2018-08-23T06:32:53.649Z,98.96
2018-08-23T06:34:02.751Z,98.63
2018-08-23T06:35:11.320Z,98.58
2018-08-23T06:36:20.239Z,98.68
2018-08-23T06:37:28.910Z,99.06
2018-08-23T06:38:37.862Z,98.58
2018-08-23T06:39:46.486Z,97.91
2018-08-23T06:40:55.395Z,98.1
2018-08-23T06:42:04.033Z,98.1
2018-08-23T06:43:12.683Z,97.81
2018-08-23T06:44:21.337Z,98
2018-08-23T06:45:29.987Z,97.81
2018-08-23T06:46:38.638Z,97.38
2018-08-23T06:47:47.537Z,97.38
2018-08-23T06:48:56.314Z,97.47
2018-08-23T06:50:04.834Z,97.28
2018-08-23T06:51:13.801Z,96.61
2018-08-23T06:52:22.392Z,96.61
2018-08-23T06:53:31.041Z,96.03
2018-08-23T06:54:39.688Z,96.13
2018-08-23T06:55:48.334Z,95.84
2018-08-23T06:56:56.987Z,95.84
2018-08-23T06:58:05.632Z,95.65
2018-08-23T06:59:14.283Z,95.84
2018-08-23T07:00:23.442Z,95.65
2018-08-23T07:01:32.355Z,95.79
2018-08-23T07:02:41.313Z,95.02
2018-08-23T07:03:50.022Z,95.4
2018-08-23T07:04:59.128Z,94.92
2018-08-23T07:06:07.767Z,95.12
2018-08-23T07:07:16.422Z,95.02
2018-08-23T07:08:25.331Z,94.64
2018-08-23T07:09:33.989Z,94.64
2018-08-23T07:10:42.657Z,94.92
2018-08-23T07:11:51.333Z,94.45
2018-08-23T07:12:59.943Z,94.06
2018-08-23T07:14:08.603Z,94.35
2018-08-23T07:15:17.248Z,94.4
2018-08-23T07:16:25.896Z,94.01
2018-08-23T07:17:35.197Z,94.2
2018-08-23T07:18:43.851Z,94.3
2018-08-23T07:19:52.496Z,94.49
2018-08-23T07:21:01.170Z,93.43
2018-08-23T07:22:09.786Z,93.43
2018-08-23T07:23:18.433Z,93.33
2018-08-23T07:24:27.621Z,93.53
2018-08-23T07:25:36.300Z,93.15
2018-08-23T07:26:44.998Z,92.71
2018-08-23T07:27:53.896Z,92.32
2018-08-23T07:29:02.553Z,92.22
2018-08-23T07:30:11.244Z,91.75
2018-08-23T07:31:19.850Z,91.84
2018-08-23T07:32:29.098Z,91.46
2018-08-23T07:33:37.752Z,91.17
2018-08-23T07:34:46.400Z,90.73
2018-08-23T07:35:55.053Z,90.25
2018-08-23T07:37:03.693Z,90.83
2018-08-23T07:38:12.344Z,90.83
2018-08-23T07:39:21.091Z,91.02
2018-08-23T07:40:29.648Z,91.21
2018-08-23T07:41:38.297Z,90.54
2018-08-23T07:42:46.938Z,90.64
2018-08-23T07:43:55.592Z,90.25
2018-08-23T07:45:04.235Z,88.71
2018-08-23T07:46:12.893Z,89.09
2018-08-23T07:47:21.535Z,88.81
2018-08-23T07:48:30.233Z,87.94
2018-08-23T07:49:38.829Z,87.46
2018-08-23T07:50:47.802Z,87.84
2018-08-23T07:51:56.445Z,87.26
2018-08-23T07:53:05.387Z,87.3
2018-08-23T07:54:14.320Z,87.3
2018-08-23T07:55:22.972Z,86.35
2018-08-23T07:56:31.620Z,86.25
2018-08-23T07:57:40.551Z,87.02
2018-08-23T07:58:49.183Z,86.15
2018-08-23T07:59:57.831Z,85.96
2018-08-23T08:01:06.753Z,85.38
2018-08-23T08:02:15.660Z,85.47
2018-08-23T08:03:24.309Z,85.96
2018-08-23T08:04:32.952Z,85.57
2018-08-23T08:05:41.610Z,85.47
2018-08-23T08:06:50.520Z,85.38
2018-08-23T08:07:59.171Z,85.57
2018-08-23T08:09:07.815Z,85.19
2018-08-23T08:10:16.472Z,85.09
2018-08-23T08:11:25.118Z,85.28
2018-08-23T08:12:33.771Z,84.61
2018-08-23T08:13:42.418Z,85.42
2018-08-23T08:14:51.086Z,85.23
2018-08-23T08:15:59.721Z,85.03
2018-08-23T08:17:08.376Z,83.88
2018-08-23T08:18:17.288Z,83.88
2018-08-23T08:19:25.941Z,83.01
2018-08-23T08:20:34.613Z,83.2
2018-08-23T08:21:43.299Z,83.01
2018-08-23T08:22:51.931Z,83.3
2018-08-23T08:24:00.825Z,82.82
2018-08-23T08:25:11.576Z,82.82
2018-08-23T08:26:20.243Z,82.72
2018-08-23T08:27:28.885Z,83.11
2018-08-23T08:28:37.533Z,83.63
2018-08-23T08:29:46.184Z,82.62
2018-08-23T08:30:54.832Z,82.38
2018-08-23T08:32:03.491Z,81.99
2018-08-23T08:33:12.193Z,81.99
2018-08-23T08:34:21.486Z,82.28
2018-08-23T08:35:30.132Z,81.7
2018-08-23T08:36:38.781Z,81.51
2018-08-23T08:37:47.435Z,81.51
2018-08-23T08:38:56.100Z,82.18
2018-08-23T08:40:04.744Z,81.41
2018-08-23T08:41:13.392Z,81.32
2018-08-23T08:42:22.053Z,80.93
2018-08-23T08:43:30.964Z,80.49
2018-08-23T08:44:39.618Z,80
2018-08-23T08:45:48.267Z,79.62
2018-08-23T08:46:56.921Z,79.62
2018-08-23T08:48:05.570Z,80.39
2018-08-23T08:49:14.223Z,80.3
2018-08-23T08:50:22.888Z,80.49
2018-08-23T08:51:31.870Z,79.43
2018-08-23T08:52:40.780Z,80.3
2018-08-23T08:53:49.435Z,79.81
2018-08-23T08:54:58.095Z,80.1
2018-08-23T08:56:06.998Z,79.24
2018-08-23T08:57:15.721Z,79.52
2018-08-23T08:58:24.301Z,78.56
2018-08-23T08:59:32.955Z,78.41
2018-08-23T09:00:41.604Z,78.31
2018-08-23T09:01:50.520Z,77.15
2018-08-23T09:02:59.229Z,77.34
2018-08-23T09:04:07.830Z,77.09
2018-08-23T09:05:16.475Z,76.18
2018-08-23T09:06:25.129Z,76.03
2018-08-23T09:07:33.776Z,75.45
2018-08-23T09:08:42.433Z,75.35
2018-08-23T09:09:51.110Z,74.77
2018-08-23T09:10:59.731Z,74.68
2018-08-23T09:12:08.396Z,74.38
2018-08-23T09:13:17.029Z,73.71
2018-08-23T09:14:25.683Z,74.58
2018-08-23T09:15:34.336Z,74.48
2018-08-23T09:16:42.987Z,73.94
2018-08-23T09:17:51.633Z,74
2018-08-23T09:19:00.292Z,74.13
2018-08-23T09:20:09.210Z,73.74
2018-08-23T09:21:17.863Z,74.23
2018-08-23T09:22:26.517Z,74.13
2018-08-23T09:23:35.172Z,72.78
2018-08-23T09:24:43.822Z,73.16
2018-08-23T09:25:52.553Z,72.78
2018-08-23T09:27:01.239Z,72.49
2018-08-23T09:28:10.176Z,73.26
2018-08-23T09:29:19.091Z,72.97
2018-08-23T09:30:28.006Z,73.55
2018-08-23T09:31:36.659Z,72.78
2018-08-23T09:32:45.370Z,72.2
2018-08-23T09:33:54.294Z,72
2018-08-23T09:35:02.968Z,71.52
2018-08-23T09:36:11.885Z,71.36
2018-08-23T09:37:20.531Z,70.78
2018-08-23T09:38:29.186Z,71.36
2018-08-23T09:39:37.837Z,70.68
2018-08-23T09:40:46.493Z,70.88
2018-08-23T09:41:55.488Z,70.1
2018-08-23T09:43:04.152Z,70.4
2018-08-23T09:44:12.791Z,70.43
2018-08-23T09:45:21.711Z,69.66
2018-08-23T09:46:30.984Z,69.08
2018-08-23T09:47:39.637Z,68.79
2018-08-23T09:48:48.283Z,68.01
2018-08-23T09:49:56.960Z,68.15
2018-08-23T09:51:05.643Z,67.85
2018-08-23T09:52:14.617Z,67.63
2018-08-23T09:53:23.263Z,68.21
2018-08-23T09:54:32.184Z,68.88
2018-08-23T09:55:40.844Z,69.37
2018-08-23T09:56:49.491Z,69.85
2018-08-23T09:57:58.146Z,70.92
2018-08-23T09:59:06.791Z,70.1
2018-08-23T10:00:15.449Z,70.88
2018-08-23T10:01:24.099Z,70.3
2018-08-23T10:02:32.749Z,70.53
2018-08-23T10:03:41.389Z,69.43
2018-08-23T10:04:50.581Z,70.34
2018-08-23T10:05:59.127Z,70.14
2018-08-23T10:07:07.781Z,70.24
2018-08-23T10:08:16.696Z,69.85
2018-08-23T10:09:25.397Z,68.88
2018-08-23T10:10:34.048Z,68.79
2018-08-23T10:11:42.873Z,68.49
2018-08-23T10:12:51.358Z,68.24
2018-08-23T10:14:00.002Z,68.33
2018-08-23T10:15:08.665Z,68.63
2018-08-23T10:16:17.314Z,68.27
2018-08-23T10:17:26.249Z,67.88
2018-08-23T10:18:34.893Z,67.21
2018-08-23T10:19:43.832Z,67.4
2018-08-23T10:20:52.491Z,67.3
2018-08-23T10:22:01.143Z,66.92
2018-08-23T10:23:09.793Z,66.92
2018-08-23T10:24:18.438Z,66.63
2018-08-23T10:25:27.349Z,66.82
2018-08-23T10:26:36.024Z,65.95
2018-08-23T10:27:44.659Z,65.85
2018-08-23T10:28:53.316Z,66.24
2018-08-23T10:30:01.972Z,66.34
2018-08-23T10:31:10.614Z,66.43
2018-08-23T10:32:19.445Z,66.72
2018-08-23T10:33:27.926Z,65.95
2018-08-23T10:34:36.585Z,65.69
2018-08-23T10:35:45.235Z,64.98
2018-08-23T10:36:53.896Z,65.11
2018-08-23T10:38:02.560Z,64.24
2018-08-23T10:39:11.199Z,64.53
2018-08-23T10:40:19.842Z,65.24
2018-08-23T10:41:28.498Z,64.27
2018-08-23T10:42:37.152Z,62.72
2018-08-23T10:43:45.805Z,62.91
2018-08-23T10:44:54.461Z,62.26
2018-08-23T10:46:03.106Z,61.29
2018-08-23T10:47:12.030Z,62.1
2018-08-23T10:48:20.925Z,61.81
2018-08-23T10:49:29.848Z,61.1
2018-08-23T10:50:38.508Z,60.61
2018-08-23T10:51:47.658Z,61.04
2018-08-23T10:52:56.316Z,60.64
2018-08-23T10:54:04.962Z,61.04
2018-08-23T10:55:13.797Z,60.94
2018-08-23T10:56:22.655Z,62.01
2018-08-23T10:57:31.311Z,63.36
2018-08-23T10:58:40.042Z,61.78
2018-08-23T10:59:50.422Z,62.55
2018-08-23T11:00:59.521Z,62.75
2018-08-23T11:02:08.177Z,63.33
2018-08-23T11:03:17.094Z,62.36
2018-08-23T11:04:26.003Z,62.75
2018-08-23T11:05:36.558Z,64.5
2018-08-23T11:06:45.207Z,64.5
2018-08-23T11:07:53.869Z,64.37
2018-08-23T11:09:02.513Z,64.37
2018-08-23T11:10:11.171Z,64.47
2018-08-23T11:11:19.819Z,64.95
2018-08-23T11:12:28.485Z,65.14
2018-08-23T11:13:37.128Z,65.24
2018-08-23T11:14:45.784Z,65.59
2018-08-23T11:15:54.437Z,66.95
2018-08-23T11:17:03.205Z,67.05
2018-08-23T11:18:12.323Z,66.47
2018-08-23T11:19:21.237Z,66.47
2018-08-23T11:20:29.888Z,65.11
2018-08-23T11:21:38.539Z,64.82
2018-08-23T11:22:47.225Z,65.4
2018-08-23T11:23:55.866Z,65.4
2018-08-23T11:25:04.529Z,64.82
2018-08-23T11:26:13.174Z,64.47
2018-08-23T11:27:21.857Z,64.56
2018-08-23T11:28:30.487Z,64.47
2018-08-23T11:29:39.245Z,64.65
2018-08-23T11:30:47.786Z,63.88
2018-08-23T11:31:56.449Z,64.07
2018-08-23T11:33:05.103Z,63.59
2018-08-23T11:34:13.754Z,63.59
2018-08-23T11:35:22.402Z,62.85
2018-08-23T11:36:31.319Z,62.85
2018-08-23T11:37:39.981Z,62.98
2018-08-23T11:38:48.639Z,62.49
2018-08-23T11:39:57.292Z,62.98
2018-08-23T11:41:05.939Z,62.78
2018-08-23T11:42:14.597Z,62.01
2018-08-23T11:43:23.250Z,61.91
2018-08-23T11:44:31.906Z,61.07
2018-08-23T11:45:40.551Z,60.19
2018-08-23T11:46:49.212Z,60.68
2018-08-23T11:47:57.857Z,60.19
2018-08-23T11:49:06.519Z,60.58
2018-08-23T11:50:15.163Z,60.87
2018-08-23T11:51:23.818Z,61.07
2018-08-23T11:52:32.470Z,62.68
2018-08-23T11:53:41.284Z,62.19
2018-08-23T11:54:50.227Z,61.42
2018-08-23T11:55:58.888Z,61.61
2018-08-23T11:57:07.541Z,62.78
2018-08-23T11:58:16.191Z,62.98
2018-08-23T11:59:24.854Z,63.26
2018-08-23T12:00:33.504Z,62.1
2018-08-23T12:01:42.159Z,61.61
2018-08-23T12:02:50.803Z,61.13
2018-08-23T12:03:59.466Z,61.74
2018-08-23T12:05:08.657Z,60.68
2018-08-23T12:06:17.577Z,60.68
2018-08-23T12:07:26.225Z,60.68
2018-08-23T12:08:34.883Z,60.02
2018-08-23T12:09:43.539Z,60.12
2018-08-23T12:10:52.791Z,59.44
2018-08-23T12:12:01.437Z,59.25
2018-08-23T12:13:10.356Z,59.57
2018-08-23T12:14:19.012Z,59.67
2018-08-23T12:15:27.942Z,57.72
2018-08-23T12:16:36.890Z,57.04
2018-08-23T12:17:45.541Z,56.46
2018-08-23T12:18:54.196Z,56.95
2018-08-23T12:20:02.850Z,57.82
2018-08-23T12:21:11.505Z,57.65
2018-08-23T12:22:20.155Z,57.62
2018-08-23T12:23:28.808Z,58.21
2018-08-23T12:24:37.726Z,58.31
2018-08-23T12:25:46.404Z,59.86
2018-08-23T12:26:55.041Z,59.92
2018-08-23T12:28:03.693Z,59.25
2018-08-23T12:29:12.347Z,59.54
2018-08-23T12:30:21.002Z,60.77
2018-08-23T12:31:29.668Z,60.97
2018-08-23T12:32:38.308Z,61.55
2018-08-23T12:33:46.962Z,60.48
2018-08-23T12:34:55.703Z,61.35
2018-08-23T12:36:04.536Z,61.07
2018-08-23T12:37:13.453Z,61.07
2018-08-23T12:38:22.109Z,60.87
2018-08-23T12:39:30.757Z,60.97
2018-08-23T12:40:39.419Z,60.97
2018-08-23T12:41:48.332Z,60.09
2018-08-23T12:42:56.988Z,59.9
2018-08-23T12:44:05.636Z,60.02
2018-08-23T12:45:14.306Z,60.51
2018-08-23T12:46:23.066Z,59.15
2018-08-23T12:47:31.604Z,59.25
2018-08-23T12:48:40.250Z,58.67
2018-08-23T12:49:48.964Z,58.86
2018-08-23T12:50:57.564Z,58.57
2018-08-23T12:52:06.223Z,58.21
2018-08-23T12:53:14.882Z,58.5
2018-08-23T12:54:23.603Z,59.25
2018-08-23T12:55:32.264Z,58.28
2018-08-23T12:56:40.912Z,58.01
2018-08-23T12:57:49.575Z,57.72
2018-08-23T12:58:58.222Z,58.31
2018-08-23T13:00:06.893Z,58.11
2018-08-23T13:01:15.806Z,58.01
2018-08-23T13:02:24.855Z,58.4
2018-08-23T13:03:34.379Z,58.11
2018-08-23T13:04:43.314Z,58.4
2018-08-23T13:05:51.970Z,58.01
2018-08-23T13:07:00.639Z,58.11
2018-08-23T13:08:09.303Z,58.18
2018-08-23T13:09:18.258Z,59.15
2018-08-23T13:10:26.910Z,59.15
2018-08-23T13:11:35.560Z,59.05
2018-08-23T13:12:44.223Z,58.86
2018-08-23T13:13:52.874Z,59.64
2018-08-23T13:15:01.531Z,59.34
2018-08-23T13:16:10.176Z,59.44
2018-08-23T13:17:18.839Z,59.92
2018-08-23T13:18:27.752Z,60.02
2018-08-23T13:19:36.732Z,60.71
2018-08-23T13:20:45.379Z,61
2018-08-23T13:21:54.122Z,61.94
2018-08-23T13:23:03.114Z,60.97
2018-08-23T13:24:11.766Z,60.68
2018-08-23T13:25:20.410Z,60.28
2018-08-23T13:26:29.324Z,60
2018-08-23T13:27:38.121Z,60.87
2018-08-23T13:28:47.113Z,60.77
2018-08-23T13:29:55.788Z,60
2018-08-23T13:31:04.421Z,61.35
2018-08-23T13:32:13.075Z,60.09
2018-08-23T13:33:21.725Z,59.9
2018-08-23T13:34:30.395Z,60.28
2018-08-23T13:35:39.039Z,60.68
2018-08-23T13:36:47.787Z,60.77
2018-08-23T13:37:56.352Z,60.48
2018-08-23T13:39:05.015Z,59.9
2018-08-23T13:40:13.661Z,58.67
2018-08-23T13:41:22.316Z,58.08
2018-08-23T13:42:30.971Z,57.6
2018-08-23T13:43:39.699Z,58.08
2018-08-23T13:44:48.280Z,57.6
2018-08-23T13:45:57.278Z,57.98
2018-08-23T13:47:05.939Z,57.6
2018-08-23T13:48:14.906Z,58.08
2018-08-23T13:49:23.850Z,57.4
2018-08-23T13:50:32.502Z,59.15
2018-08-23T13:51:41.163Z,58.28
2018-08-23T13:52:49.948Z,57.98
2018-08-23T13:53:58.560Z,57.98
2018-08-23T13:55:07.124Z,58.18
2018-08-23T13:56:15.779Z,58.37
2018-08-23T13:57:24.429Z,57.89
2018-08-23T13:58:33.087Z,57.89
2018-08-23T13:59:41.743Z,57.98
2018-08-23T14:00:50.396Z,58.28
2018-08-23T14:01:59.042Z,57.89
2018-08-23T14:03:07.702Z,57.31
2018-08-23T14:04:16.623Z,57.6
2018-08-23T14:05:25.275Z,56.56
2018-08-23T14:06:33.972Z,57.72
2018-08-23T14:07:43.000Z,59.38
2018-08-23T14:08:51.628Z,58.28
2018-08-23T14:10:00.280Z,57.31
2018-08-23T14:11:08.977Z,56.92
2018-08-23T14:12:17.983Z,57.89
2018-08-23T14:13:26.635Z,58.08
2018-08-23T14:14:35.287Z,58.18
2018-08-23T14:15:43.946Z,58.18
2018-08-23T14:16:52.594Z,58.15
2018-08-23T14:18:01.254Z,58.34
2018-08-23T14:19:09.931Z,58.83
2018-08-23T14:20:18.563Z,58.83
2018-08-23T14:21:27.477Z,59.31
2018-08-23T14:22:36.398Z,58.34
2018-08-23T14:23:45.045Z,58.54
2018-08-23T14:24:53.694Z,59.03
2018-08-23T14:26:02.615Z,58.64
2018-08-23T14:27:11.287Z,58.54
2018-08-23T14:28:19.920Z,59.22
2018-08-23T14:29:28.570Z,57.86
2018-08-23T14:30:37.223Z,58.08
2018-08-23T14:31:45.876Z,57.6
2018-08-23T14:32:54.610Z,58.15
2018-08-23T14:34:03.519Z,58.08
2018-08-23T14:35:12.177Z,57.08
2018-08-23T14:36:20.831Z,57.57
2018-08-23T14:37:29.748Z,57.28
2018-08-23T14:38:38.421Z,58.44
2018-08-23T14:39:47.059Z,58.25
2018-08-23T14:40:55.712Z,58.15
2018-08-23T14:42:04.649Z,58.34
2018-08-23T14:43:13.303Z,58.15
2018-08-23T14:44:22.015Z,57.86
2018-08-23T14:45:30.610Z,58.34
2018-08-23T14:46:39.339Z,58.15
2018-08-23T14:47:47.912Z,58.25